Time;durP1;ratioP1;P1;durP2;ratioP2;P2;SDS_P1;SDS_P2;PMS_P1;PMS_P2;Temp;Humidity;BMP_temperature;BMP_pressure;BME280_temperature;BME280_humidity;BME280_pressure;Samples;Min_cycle;Max_cycle;Signal;HPM_P1;HPM_P2
2023/01/30 07:35:05;;;;;;;0.73;0.70;;;9.40;99.90;11.50;101682.00;;;;6339083;22;20254;-64
2023/01/30 07:37:31;;;;;;;0.50;0.50;;;9.30;99.90;11.60;101693.00;;;;6256690;22;1306041;-64
2023/01/30 07:40:02;;;;;;;0.30;0.30;;;9.20;99.90;11.60;101710.00;;;;6307829;22;20155;-64
2023/01/30 07:42:28;;;;;;;0.40;0.40;;;9.10;99.90;11.60;101716.00;;;;6308860;22;20193;-64
2023/01/30 07:44:57;;;;;;;0.30;0.30;;;9.20;99.90;11.80;101712.00;;;;6309346;22;20146;-64
2023/01/30 07:47:23;;;;;;;1.37;0.77;;;9.20;99.90;11.90;101715.00;;;;6307671;22;20149;-64
2023/01/30 07:49:49;;;;;;;0.30;0.30;;;9.20;99.90;12.10;101706.00;;;;6307562;22;20221;-65
2023/01/30 07:52:17;;;;;;;0.30;0.30;;;9.30;99.90;12.10;101731.00;;;;6307506;22;20234;-65
2023/01/30 07:54:52;;;;;;;0.30;0.30;;;9.40;99.90;11.70;101728.00;;;;6281884;22;20162;-64
2023/01/30 07:57:23;;;;;;;0.30;0.30;;;9.40;99.90;11.70;101711.00;;;;6308925;22;20137;-64
2023/01/30 07:59:52;;;;;;;0.73;0.63;;;9.30;99.90;11.80;101733.00;;;;6308783;22;20151;-64
2023/01/30 08:02:20;;;;;;;4.03;2.40;;;9.30;99.90;10.40;101706.00;;;;6308250;22;20180;-64
2023/01/30 08:04:46;;;;;;;0.30;0.30;;;8.90;99.90;11.00;101656.00;;;;6307750;22;20153;-64
2023/01/30 08:07:12;;;;;;;3.10;0.83;;;8.80;99.90;10.60;101688.00;;;;6307403;22;20163;-64
2023/01/30 08:09:38;;;;;;;1.70;1.60;;;8.70;99.90;10.50;101686.00;;;;6308603;22;20149;-64
2023/01/30 08:12:07;;;;;;;2.23;1.70;;;8.60;99.90;9.70;101673.00;;;;6308782;22;20150;-64
2023/01/30 08:14:33;;;;;;;1.17;1.17;;;8.40;99.90;9.70;101654.00;;;;6308815;22;20148;-64
2023/01/30 08:17:02;;;;;;;2.57;1.43;;;8.20;99.90;10.00;101667.00;;;;6308273;22;20149;-64
2023/01/30 08:19:30;;;;;;;1.17;1.07;;;8.20;99.90;9.80;101675.00;;;;6307111;22;20164;-65
2023/01/30 08:22:41;;;;;;;2.17;0.80;;;8.20;99.90;9.50;101689.00;;;;6307242;22;20304;-64
2023/01/30 08:25:07;;;;;;;0.70;0.70;;;8.10;99.90;10.20;101715.00;;;;6281220;22;20188;-64
2023/01/30 08:27:36;;;;;;;0.40;0.40;;;8.20;99.90;11.20;101724.00;;;;6306469;22;20146;-65
2023/01/30 08:30:02;;;;;;;1.53;0.97;;;8.50;99.90;10.30;101761.00;;;;6308439;22;20149;-64
2023/01/30 08:32:31;;;;;;;0.47;0.47;;;8.50;99.90;10.30;101729.00;;;;6308347;22;20179;-65
2023/01/30 08:35:00;;;;;;;0.50;0.50;;;8.40;99.90;11.40;101767.00;;;;6306808;22;20148;-64
2023/01/30 08:37:26;;;;;;;0.43;0.43;;;8.70;99.90;11.30;101777.00;;;;6280294;22;20175;-64
2023/01/30 08:40:20;;;;;;;5.40;1.33;;;8.80;99.90;11.10;101774.00;;;;6305411;22;20541;-64
2023/01/30 08:42:46;;;;;;;0.20;0.20;;;8.80;99.90;11.40;101776.00;;;;6281724;22;20183;-64
2023/01/30 08:45:12;;;;;;;0.20;0.20;;;8.90;99.90;11.70;101782.00;;;;6308342;22;20226;-64
2023/01/30 08:47:39;;;;;;;0.53;0.50;;;9.10;99.90;11.10;101800.00;;;;6304928;22;20148;-65
2023/01/30 08:50:05;;;;;;;4.03;1.37;;;9.00;99.90;10.40;101787.00;;;;6307125;22;20141;-64
2023/01/30 08:52:34;;;;;;;0.20;0.20;;;8.80;99.90;11.30;101737.00;;;;6306784;22;20240;-64
2023/01/30 08:55:00;;;;;;;0.20;0.20;;;8.90;99.90;11.00;101793.00;;;;6281505;22;20454;-64
2023/01/30 08:57:26;;;;;;;0.30;0.30;;;8.80;99.90;10.70;101795.00;;;;6307425;22;20191;-64
2023/01/30 08:59:52;;;;;;;3.00;0.30;;;8.60;99.90;11.20;101804.00;;;;6305812;22;20203;-65
2023/01/30 09:02:27;;;;;;;1.03;0.83;;;8.80;99.90;11.20;101802.00;;;;6307076;22;20172;-66
2023/01/30 09:04:53;;;;;;;0.20;0.20;;;9.00;99.90;10.70;101797.00;;;;6281020;22;20152;-65
2023/01/30 09:07:21;;;;;;;2.90;0.27;;;8.90;99.90;11.30;101754.00;;;;6307459;22;20144;-65
2023/01/30 09:09:47;;;;;;;0.20;0.20;;;8.90;99.90;11.90;101816.00;;;;6306829;22;20147;-65
2023/01/30 09:12:13;;;;;;;0.20;0.20;;;9.20;99.90;12.30;101810.00;;;;6307472;22;20215;-65
2023/01/30 09:14:42;;;;;;;1.07;0.43;;;9.50;99.90;12.40;101826.00;;;;6304966;22;20206;-65
2023/01/30 09:17:08;;;;;;;1.27;1.07;;;9.70;99.90;12.40;101829.00;;;;6306115;22;20680;-65
2023/01/30 09:19:37;;;;;;;0.43;0.43;;;9.90;99.90;12.10;101835.00;;;;6308466;22;20164;-65
2023/01/30 09:22:03;;;;;;;0.60;0.60;;;9.90;99.90;12.50;101839.00;;;;6306793;22;20487;-64
2023/01/30 09:24:29;;;;;;;0.63;0.40;;;10.00;99.90;12.60;101844.00;;;;6306587;22;20141;-65
2023/01/30 09:26:57;;;;;;;2.60;1.30;;;10.10;99.90;12.60;101841.00;;;;6306276;22;20145;-65
2023/01/30 09:29:28;;;;;;;3.90;1.53;;;10.20;99.90;12.30;101847.00;;;;6305743;22;20160;-65
2023/01/30 09:31:55;;;;;;;4.97;1.40;;;10.20;99.90;12.50;101838.00;;;;6305239;22;20146;-65
2023/01/30 09:34:27;;;;;;;0.73;0.20;;;10.30;99.90;13.10;101848.00;;;;6308219;22;20148;-65
2023/01/30 09:37:00;;;;;;;0.40;0.30;;;10.50;99.90;13.50;101855.00;;;;6305541;22;20626;-65
2023/01/30 09:39:27;;;;;;;6.97;0.87;;;10.80;99.90;12.80;101878.00;;;;6306058;22;20467;-65
2023/01/30 09:42:46;;;;;;;1.50;1.40;;;10.70;99.90;13.40;101900.00;;;;6304601;22;20561;-65
2023/01/30 09:45:40;;;;;;;0.50;0.50;;;10.80;99.90;13.60;101901.00;;;;6297988;22;20169;-65
2023/01/30 09:48:13;;;;;;;1.93;1.20;;;10.90;99.90;13.80;101916.00;;;;6306978;22;20549;-65
2023/01/30 09:51:10;;;;;;;0.13;0.13;;;11.20;99.90;14.30;101911.00;;;;6307085;22;20146;-65
2023/01/30 09:54:00;;;;;;;0.27;0.27;;;11.30;99.90;14.40;101916.00;;;;6306145;22;20592;-65
2023/01/30 09:56:25;;;;;;;3.80;0.30;;;11.60;99.90;14.80;101940.00;;;;6308035;22;20229;-65
2023/01/30 09:58:57;;;;;;;1.70;0.57;;;11.90;99.90;14.70;101930.00;;;;6306479;22;20171;-65
2023/01/30 10:01:48;;;;;;;1.97;0.50;;;11.90;99.90;13.90;101958.00;;;;6305756;22;20462;-65
2023/01/30 10:04:34;;;;;;;0.27;0.27;;;11.80;99.90;14.00;101912.00;;;;6307975;22;20171;-64
2023/01/30 10:07:28;;;;;;;0.20;0.20;;;11.50;99.90;13.80;101971.00;;;;6306343;22;20179;-65
2023/01/30 10:10:34;;;;;;;1.53;1.40;;;11.50;99.90;14.20;101955.00;;;;6307319;22;20564;-65
2023/01/30 10:13:09;;;;;;;0.10;0.10;;;11.70;99.90;14.90;101955.00;;;;6307480;22;20158;-65
2023/01/30 10:16:20;;;;;;;7.20;0.75;;;11.90;99.90;14.90;101918.00;;;;6304445;22;20396;-66
2023/01/30 10:19:14;;;;;;;5.07;2.40;;;12.10;99.90;14.60;101949.00;;;;6307727;22;20163;-66
2023/01/30 10:33:35;;;;;;;0.50;0.50;;;10.80;99.90;13.20;101901.00;;;;5070510;28;21066;-65
2023/01/30 10:36:38;;;;;;;0.20;0.20;;;11.00;99.90;14.20;101923.00;;;;5048370;28;20279;-65
2023/01/30 10:39:20;;;;;;;1.47;1.37;;;11.60;99.90;14.70;101943.00;;;;5040288;28;20200;-65
2023/01/30 10:42:09;;;;;;;0.20;0.20;;;12.00;99.90;14.80;101957.00;;;;5050553;28;20200;-62
2023/01/30 10:44:35;;;;;;;0.27;0.27;;;12.20;99.90;14.80;101972.00;;;;5027487;28;20544;-64
2023/01/30 10:47:27;;;;;;;0.90;0.87;;;12.30;99.90;14.70;101980.00;;;;5049317;28;20182;-64
2023/01/30 10:49:57;;;;;;;0.60;0.40;;;12.20;99.90;14.50;101988.00;;;;5042371;28;20196;-65
2023/01/30 10:53:03;;;;;;;1.50;0.63;;;12.10;99.90;14.30;101984.00;;;;5048733;28;20209;-65
2023/01/30 10:55:50;;;;;;;0.10;0.10;;;12.20;99.90;14.60;101999.00;;;;5067386;28;20239;-65
2023/01/30 10:58:25;;;;;;;4.77;0.73;;;12.00;99.90;14.70;101956.00;;;;5078874;28;20272;-65
2023/01/30 11:00:58;;;;;;;16.07;0.93;;;12.10;99.90;14.00;102033.00;;;;5047850;28;20269;-64
2023/01/30 11:03:41;;;;;;;0.20;0.20;;;11.80;99.90;14.70;101968.00;;;;5050124;28;20655;-64
2023/01/30 11:06:15;;;;;;;3.60;1.10;;;11.90;99.90;14.00;102014.00;;;;5048391;28;20208;-64
2023/01/30 11:09:16;;;;;;;0.23;0.23;;;11.70;99.90;14.50;102019.00;;;;5047719;28;20185;-65
2023/01/30 11:11:52;;;;;;;0.30;0.30;;;11.80;99.90;14.50;102009.00;;;;5045046;28;20214;-66
2023/01/30 11:14:19;;;;;;;0.40;0.40;;;11.70;99.90;14.30;102026.00;;;;5049952;28;20189;-64
2023/01/30 11:16:53;;;;;;;0.13;0.13;;;11.70;99.90;14.30;102019.00;;;;5048392;28;20190;-61
2023/01/30 11:19:30;;;;;;;0.43;0.43;;;11.70;99.90;14.20;102012.00;;;;5047731;28;20656;-61
2023/01/30 11:22:02;;;;;;;3.20;0.80;;;11.60;99.90;13.00;101995.00;;;;5041310;28;20551;-61
2023/01/30 11:24:42;;;;;;;0.43;0.43;;;11.20;99.90;13.60;102028.00;;;;5049349;28;20624;-61
2023/01/30 11:27:26;;;;;;;0.43;0.30;;;11.10;99.90;14.00;102028.00;;;;5049017;28;20186;-61
2023/01/30 11:30:15;;;;;;;0.23;0.23;;;11.20;99.90;13.80;102002.00;;;;5046074;28;20232;-60
2023/01/30 11:32:48;;;;;;;1.03;0.93;;;11.20;99.90;13.00;102046.00;;;;5048652;28;20214;-61
2023/01/30 11:35:25;;;;;;;0.60;0.50;;;11.00;99.90;12.90;102048.00;;;;5048345;28;20185;-61
2023/01/30 11:37:52;;;;;;;0.40;0.40;;;10.90;99.90;13.50;102034.00;;;;5047118;28;20666;-61
2023/01/30 11:40:22;;;;;;;0.20;0.20;;;10.80;99.90;13.20;102018.00;;;;5047529;28;20199;-61
2023/01/30 11:43:03;;;;;;;0.80;0.80;;;10.90;99.90;13.70;101998.00;;;;5045803;28;20189;-59
2023/01/30 11:45:46;;;;;;;0.10;0.10;;;11.00;99.90;13.70;102003.00;;;;5031289;28;20229;-59
2023/01/30 11:48:43;;;;;;;4.60;0.73;;;11.00;99.90;13.40;102007.00;;;;5034932;28;20636;-58
2023/01/30 11:51:10;;;;;;;0.20;0.20;;;10.90;99.90;13.50;102003.00;;;;5033349;28;20200;-58
2023/01/30 11:53:48;;;;;;;3.97;1.10;;;10.90;99.90;14.30;102003.00;;;;5028893;28;20634;-60
2023/01/30 11:56:44;;;;;;;0.87;0.87;;;11.30;99.90;14.60;102006.00;;;;5027355;28;20190;-60
2023/01/30 11:59:27;;;;;;;0.47;0.47;;;11.70;99.90;14.40;102009.00;;;;5034370;28;20191;-60
2023/01/30 12:02:21;;;;;;;0.30;0.30;;;11.80;99.90;13.80;102022.00;;;;5027912;28;20643;-60
2023/01/30 12:04:58;;;;;;;3.73;1.57;;;11.60;99.90;14.10;102013.00;;;;5024457;28;20692;-60
2023/01/30 12:07:36;;;;;;;0.10;0.10;;;11.50;99.90;13.80;102003.00;;;;5034483;28;20182;-60
2023/01/30 12:10:30;;;;;;;1.00;1.00;;;11.60;99.90;13.70;102031.00;;;;5061501;28;20211;-60
2023/01/30 12:13:20;;;;;;;0.30;0.30;;;11.30;99.90;13.50;102038.00;;;;5028525;28;20222;-60
2023/01/30 12:15:56;;;;;;;2.90;1.07;;;11.10;99.90;13.60;102036.00;;;;5028776;28;20175;-60
2023/01/30 12:19:29;;;;;;;0.73;0.73;;;11.10;99.90;13.40;102045.00;;;;5035570;28;20187;-60
2023/01/30 12:22:22;;;;;;;3.00;0.70;;;11.00;99.90;13.40;102040.00;;;;4992684;28;20290;-60
2023/01/30 12:25:24;;;;;;;1.03;1.03;;;10.90;99.90;13.60;102030.00;;;;4993338;28;20545;-60
2023/01/30 12:28:14;;;;;;;1.60;0.80;;;10.80;99.90;12.80;101986.00;;;;5028528;28;20207;-60
2023/01/30 12:31:46;;;;;;;1.60;1.17;;;10.70;99.90;12.60;102037.00;;;;5034096;28;20297;-59
2023/01/30 12:34:29;;;;;;;1.50;0.77;;;10.40;99.90;12.60;102020.00;;;;5016614;28;20199;-60
2023/01/30 12:37:35;;;;;;;0.23;0.23;;;10.40;99.90;13.00;102016.00;;;;5010310;28;20574;-60
2023/01/30 12:40:38;;;;;;;0.10;0.10;;;10.60;99.90;13.80;102016.00;;;;5026007;28;20641;-59
2023/01/30 12:44:03;;;;;;;0.67;0.67;;;11.00;99.90;14.00;101963.00;;;;5022157;28;20206;-60
2023/01/30 12:46:43;;;;;;;1.93;0.77;;;11.30;99.90;14.20;102020.00;;;;5038550;28;20673;-60
2023/01/30 12:49:28;;;;;;;0.67;0.57;;;11.40;99.90;14.20;102019.00;;;;5034585;28;20645;-60
2023/01/30 12:52:39;;;;;;;2.47;0.40;;;11.70;99.90;14.40;102021.00;;;;5034285;28;20284;-60
2023/01/30 12:55:26;;;;;;;4.20;0.67;;;11.90;99.90;13.90;102023.00;;;;5025823;28;20185;-60
2023/01/30 12:58:32;;;;;;;4.60;1.00;;;11.60;99.90;13.50;102035.00;;;;5032399;28;20700;-59
2023/01/30 13:01:05;;;;;;;0.10;0.10;;;11.30;99.90;13.60;102043.00;;;;5025907;28;20235;-59
2023/01/30 13:03:55;;;;;;;0.10;0.10;;;11.30;99.90;14.20;102037.00;;;;5034302;28;20687;-59
2023/01/30 13:06:42;;;;;;;1.70;0.60;;;11.30;99.90;13.50;102052.00;;;;5034208;28;20185;-59
2023/01/30 13:09:58;;;;;;;0.10;0.10;;;11.30;99.90;14.10;102025.00;;;;5032881;28;20183;-60
2023/01/30 13:12:41;;;;;;;0.93;0.43;;;11.40;99.90;13.90;102037.00;;;;5034088;28;20199;-59
2023/01/30 13:15:24;;;;;;;1.70;0.77;;;11.50;99.90;13.80;102037.00;;;;5034163;28;20243;-59
2023/01/30 13:18:28;;;;;;;0.20;0.20;;;11.30;99.90;14.60;102035.00;;;;5031536;28;20244;-59
2023/01/30 13:21:11;;;;;;;0.23;0.23;;;11.50;99.90;14.10;102003.00;;;;5018617;28;20213;-64
2023/01/30 13:24:42;;;;;;;0.73;0.27;;;11.60;99.90;13.40;102047.00;;;;5031258;28;20702;-64
2023/01/30 13:27:16;;;;;;;0.33;0.33;;;11.40;99.90;13.40;102054.00;;;;5023855;28;20204;-64
2023/01/30 13:29:48;;;;;;;0.57;0.23;;;11.10;99.90;13.10;102048.00;;;;5015311;28;20199;-63
2023/01/30 13:32:36;;;;;;;2.33;1.87;;;11.00;99.90;13.20;102045.00;;;;5023821;28;20214;-64
2023/01/30 13:35:34;;;;;;;1.90;1.50;;;10.90;99.90;12.90;102049.00;;;;5024833;28;20193;-64
2023/01/30 13:38:03;;;;;;;0.10;0.10;;;10.80;99.90;12.70;102049.00;;;;5024734;28;20213;-63
2023/01/30 13:40:40;;;;;;;0.27;0.20;;;10.50;99.90;13.50;102004.00;;;;5016236;28;20653;-65
2023/01/30 13:43:28;;;;;;;0.20;0.20;;;10.80;99.90;13.10;102049.00;;;;5032278;28;20198;-64
2023/01/30 13:46:39;;;;;;;1.43;1.33;;;10.80;99.90;13.20;102034.00;;;;5031920;28;20185;-65
2023/01/30 13:49:35;;;;;;;0.17;0.17;;;10.80;99.90;13.20;102055.00;;;;5024534;28;20260;-68
2023/01/30 13:52:33;;;;;;;0.77;0.63;;;10.70;99.90;13.30;102048.00;;;;5022295;28;20195;-65
2023/01/30 13:55:48;;;;;;;0.43;0.33;;;10.80;99.90;12.40;102042.00;;;;5030530;28;20764;-70
2023/01/30 13:58:30;;;;;;;0.10;0.10;;;10.60;99.90;13.10;102004.00;;;;4961702;28;20208;-65
2023/01/30 14:01:01;;;;;;;0.43;0.43;;;10.50;99.90;13.20;102053.00;;;;5033556;28;20588;-65
2023/01/30 14:03:37;;;;;;;0.20;0.20;;;10.60;99.90;13.10;102060.00;;;;5032335;28;20182;-64
2023/01/30 14:06:39;;;;;;;0.50;0.20;;;10.60;99.90;12.80;102072.00;;;;5019197;28;20184;-65
2023/01/30 14:09:28;;;;;;;0.73;0.63;;;10.60;99.90;12.40;102063.00;;;;5031945;28;20627;-65
2023/01/30 14:11:59;;;;;;;0.20;0.20;;;10.30;99.90;13.00;102058.00;;;;5032051;28;20563;-65
2023/01/30 14:14:41;;;;;;;0.20;0.20;;;10.40;99.90;12.80;102058.00;;;;5032162;28;20214;-65
2023/01/30 14:17:18;;;;;;;3.17;2.97;;;10.40;99.90;12.70;102062.00;;;;5032294;28;20182;-64
2023/01/30 14:20:24;;;;;;;0.30;0.30;;;10.40;99.90;12.40;102049.00;;;;5027398;28;20645;-65
2023/01/30 14:22:53;;;;;;;0.60;0.60;;;10.50;99.90;12.30;102057.00;;;;5032168;28;20281;-65
2023/01/30 14:25:28;;;;;;;0.63;0.63;;;10.30;99.90;13.00;102073.00;;;;5014696;28;20195;-65
2023/01/30 14:28:20;;;;;;;3.30;1.80;;;10.40;99.90;12.30;102080.00;;;;5028547;28;20246;-64
2023/01/30 14:30:51;;;;;;;0.67;0.67;;;10.30;99.90;12.90;102087.00;;;;5027564;28;20188;-64
2023/01/30 14:33:33;;;;;;;0.20;0.20;;;10.40;99.90;12.30;102098.00;;;;5021153;28;20717;-65
2023/01/30 14:36:14;;;;;;;3.30;0.90;;;10.30;99.90;12.30;102035.00;;;;5030411;28;20504;-64
2023/01/30 14:38:43;;;;;;;0.80;0.80;;;10.10;99.90;12.50;102091.00;;;;5033131;28;20184;-64
2023/01/30 14:41:26;;;;;;;2.30;2.20;;;10.10;99.90;12.70;102086.00;;;;5025414;28;20634;-64
2023/01/30 14:43:56;;;;;;;0.20;0.20;;;10.10;99.90;13.00;102093.00;;;;5010599;28;20750;-64
2023/01/30 14:46:24;;;;;;;2.50;0.97;;;10.30;99.90;11.90;102062.00;;;;5015499;28;20193;-64
2023/01/30 14:49:26;;;;;;;4.23;0.67;;;10.10;99.90;11.90;102105.00;;;;5031640;28;20197;-64
2023/01/30 14:51:59;;;;;;;1.77;0.73;;;10.00;99.90;12.50;102110.00;;;;5030516;28;20218;-64
2023/01/30 14:54:33;;;;;;;2.90;0.50;;;10.00;99.90;12.40;102120.00;;;;5031328;28;20194;-64
2023/01/30 14:57:02;;;;;;;1.20;0.37;;;10.00;99.90;12.70;102081.00;;;;5031267;28;20186;-64
2023/01/30 14:59:45;;;;;;;0.10;0.10;;;10.20;99.90;13.00;102122.00;;;;5031563;28;20651;-64
2023/01/30 15:02:14;;;;;;;0.93;0.53;;;10.30;99.90;12.50;102132.00;;;;5021576;28;20188;-64
2023/01/30 15:05:02;;;;;;;1.17;1.07;;;10.30;99.90;12.30;102138.00;;;;5027918;28;20622;-65
2023/01/30 15:07:54;;;;;;;2.37;1.30;;;10.10;99.90;12.50;102137.00;;;;5032987;28;20190;-65
2023/01/30 15:10:36;;;;;;;0.20;0.20;;;10.00;99.90;12.80;102151.00;;;;5014182;28;20191;-63
2023/01/30 15:13:42;;;;;;;1.57;1.47;;;10.20;99.90;12.80;102142.00;;;;5031258;28;20619;-63
2023/01/30 15:16:36;;;;;;;0.20;0.20;;;10.30;99.90;12.70;102161.00;;;;5024192;28;20195;-63
2023/01/30 15:19:23;;;;;;;1.30;0.37;;;10.10;99.90;12.80;102159.00;;;;5011045;28;20232;-63
2023/01/30 15:22:23;;;;;;;3.93;1.47;;;10.20;99.90;12.60;102155.00;;;;5024055;28;20269;-63
2023/01/30 15:25:13;;;;;;;0.20;0.20;;;10.20;99.90;12.80;102174.00;;;;5026093;28;20186;-63
2023/01/30 15:28:25;;;;;;;0.97;0.20;;;10.20;99.90;12.00;102183.00;;;;5035832;28;20185;-63
2023/01/30 15:31:18;;;;;;;6.38;5.88;;;9.90;99.90;12.20;102186.00;;;;5007319;28;20923;-63
2023/01/30 15:33:58;;;;;;;1.37;1.37;;;9.90;99.90;12.20;102191.00;;;;5034763;28;20214;-63
2023/01/30 15:36:35;;;;;;;0.30;0.30;;;9.80;99.90;12.40;102191.00;;;;5060550;28;20187;-63
2023/01/30 15:39:24;;;;;;;1.30;0.53;;;9.90;99.90;12.50;102205.00;;;;5030399;28;20275;-63
2023/01/30 15:42:05;;;;;;;0.43;0.43;;;9.90;99.90;13.00;102205.00;;;;5034734;28;20240;-63
2023/01/30 15:45:22;;;;;;;0.20;0.20;;;10.10;99.90;12.80;102210.00;;;;5034237;28;20193;-63
2023/01/30 15:48:06;;;;;;;1.23;0.40;;;10.10;99.90;12.70;102225.00;;;;5006905;28;20221;-63
2023/01/30 15:50:38;;;;;;;0.20;0.20;;;10.20;99.90;12.40;102187.00;;;;5013705;28;20275;-63
2023/01/30 15:53:14;;;;;;;1.27;1.27;;;10.00;99.90;12.20;102238.00;;;;5021196;28;20714;-63
2023/01/30 15:55:45;;;;;;;1.27;0.83;;;10.00;99.90;12.90;102239.00;;;;5032934;28;20188;-62
2023/01/30 15:58:27;;;;;;;0.20;0.20;;;10.10;99.90;13.10;102233.00;;;;5026877;28;20177;-62
2023/01/30 16:00:56;;;;;;;0.20;0.20;;;10.10;99.90;12.30;102244.00;;;;5030026;28;20198;-62
2023/01/30 16:03:35;;;;;;;0.20;0.20;;;10.00;99.90;12.80;102246.00;;;;5031129;28;20277;-62
2023/01/30 16:06:28;;;;;;;0.30;0.30;;;10.00;99.90;12.60;102243.00;;;;5026175;28;20525;-62
2023/01/30 16:09:04;;;;;;;4.53;1.13;;;10.00;99.90;12.10;102264.00;;;;5051002;28;20200;-62
2023/01/30 16:11:51;;;;;;;0.20;0.20;;;9.90;99.90;13.00;102262.00;;;;5032896;28;20237;-63
2023/01/30 16:14:20;;;;;;;2.10;0.87;;;10.00;99.90;12.90;102271.00;;;;5023702;28;20209;-62
2023/01/30 16:17:05;;;;;;;0.30;0.30;;;10.10;99.90;12.90;102273.00;;;;5031752;28;20188;-63
2023/01/30 16:19:36;;;;;;;0.73;0.73;;;10.10;99.90;12.20;102281.00;;;;5034179;28;20296;-62
2023/01/30 16:22:14;;;;;;;3.30;1.50;;;9.90;99.90;12.40;102278.00;;;;5033217;28;20568;-63
2023/01/30 16:24:50;;;;;;;0.20;0.20;;;9.70;99.90;12.30;102286.00;;;;5017408;28;20589;-62
2023/01/30 16:27:29;;;;;;;0.87;0.87;;;9.70;99.90;12.00;102276.00;;;;5032782;28;20272;-62
2023/01/30 16:30:03;;;;;;;0.50;0.50;;;9.50;99.90;11.90;102288.00;;;;5019514;28;20183;-62
2023/01/30 16:32:32;;;;;;;0.20;0.20;;;9.30;99.90;11.90;102292.00;;;;5031421;28;20227;-62
2023/01/30 16:35:26;;;;;;;1.60;0.70;;;9.30;99.90;11.80;102299.00;;;;5035396;28;20541;-62
2023/01/30 16:37:55;;;;;;;0.20;0.20;;;9.20;99.90;11.60;102309.00;;;;5026008;28;20191;-62
2023/01/30 16:40:41;;;;;;;0.20;0.20;;;9.20;99.90;12.30;102295.00;;;;5032997;28;20544;-63
2023/01/30 16:43:29;;;;;;;0.20;0.20;;;9.30;99.90;12.30;102296.00;;;;5012105;28;20191;-62
2023/01/30 16:46:41;;;;;;;0.25;0.25;;;9.50;99.90;12.40;102306.00;;;;5028918;28;20964;-62
2023/01/30 16:49:36;;;;;;;1.10;0.80;;;9.60;99.90;12.20;102314.00;;;;5024574;28;20674;-62
2023/01/30 16:52:17;;;;;;;0.20;0.20;;;9.40;99.90;12.40;102271.00;;;;5029092;28;20313;-62
2023/01/30 16:55:04;;;;;;;0.23;0.23;;;9.50;99.90;12.50;102310.00;;;;5034611;28;20637;-62
2023/01/30 16:57:44;;;;;;;0.30;0.30;;;9.50;99.90;12.80;102310.00;;;;5016765;28;20187;-63
2023/01/30 17:00:23;;;;;;;0.93;0.93;;;9.60;99.90;12.40;102334.00;;;;5032589;28;20208;-62
2023/01/30 17:03:02;;;;;;;0.20;0.20;;;9.60;99.90;12.20;102342.00;;;;5034222;28;20186;-62
2023/01/30 17:05:38;;;;;;;0.20;0.20;;;9.50;99.90;12.20;102341.00;;;;5018477;28;20187;-62
2023/01/30 17:08:05;;;;;;;0.20;0.20;;;9.40;99.90;12.50;102353.00;;;;5029687;28;20229;-62
2023/01/30 17:11:09;;;;;;;0.20;0.20;;;9.50;99.90;12.60;102346.00;;;;5032680;28;20188;-62
2023/01/30 17:13:41;;;;;;;0.20;0.20;;;9.60;99.90;12.30;102360.00;;;;5032714;28;20690;-63
2023/01/30 17:16:21;;;;;;;0.23;0.23;;;9.40;99.90;12.50;102361.00;;;;5031303;28;20184;-63
2023/01/30 17:18:56;;;;;;;0.20;0.20;;;9.50;99.90;12.00;102360.00;;;;5020899;28;20184;-63
2023/01/30 17:21:29;;;;;;;0.57;0.57;;;9.30;99.90;12.60;102352.00;;;;5013421;28;20187;-62
2023/01/30 17:24:05;;;;;;;0.20;0.20;;;9.40;99.90;12.30;102370.00;;;;5060299;28;20191;-64
2023/01/30 17:26:32;;;;;;;0.20;0.20;;;9.30;99.90;11.60;102373.00;;;;5031939;28;20671;-63
2023/01/30 17:28:58;;;;;;;0.60;0.60;;;9.10;99.90;11.40;102360.00;;;;5032467;28;20187;-62
2023/01/30 17:31:24;;;;;;;0.23;0.23;;;8.90;99.90;11.70;102370.00;;;;5032753;28;20278;-63
2023/01/30 17:34:11;;;;;;;0.20;0.20;;;8.90;99.90;11.70;102376.00;;;;5049192;28;20537;-63
2023/01/30 17:36:42;;;;;;;0.20;0.20;;;8.80;99.90;12.00;102376.00;;;;5034027;28;20653;-63
2023/01/30 17:39:16;;;;;;;0.20;0.20;;;8.90;99.90;12.40;102392.00;;;;5010697;28;20183;-63
2023/01/30 17:41:49;;;;;;;0.30;0.30;;;9.10;99.90;12.20;102388.00;;;;5031866;28;20661;-63
2023/01/30 17:44:18;;;;;;;0.20;0.20;;;9.10;99.90;12.10;102394.00;;;;5015903;28;20201;-63
2023/01/30 17:46:50;;;;;;;0.20;0.20;;;9.10;99.90;11.80;102398.00;;;;5031379;28;20197;-63
2023/01/30 17:49:25;;;;;;;0.30;0.30;;;8.90;99.90;11.60;102408.00;;;;5033412;28;20246;-63
2023/01/30 17:51:52;;;;;;;0.30;0.30;;;8.70;99.90;11.90;102394.00;;;;5033019;28;20746;-63
2023/01/30 17:54:19;;;;;;;0.30;0.30;;;8.80;99.90;11.50;102407.00;;;;5033186;28;20720;-63
2023/01/30 17:57:09;;;;;;;0.40;0.40;;;8.80;99.90;11.90;102389.00;;;;5032757;28;20197;-63
2023/01/30 17:59:35;;;;;;;0.20;0.20;;;8.70;99.90;11.80;102383.00;;;;5025418;28;20199;-63
2023/01/30 18:02:01;;;;;;;0.30;0.30;;;8.90;99.90;12.10;102412.00;;;;5058920;28;20217;-64
2023/01/30 18:04:27;;;;;;;0.27;0.27;;;9.00;99.90;12.30;102412.00;;;;5032039;28;20179;-63
2023/01/30 18:07:05;;;;;;;0.20;0.20;;;9.10;99.90;12.30;102411.00;;;;5016021;28;20183;-63
2023/01/30 18:09:31;;;;;;;0.30;0.30;;;9.10;99.90;12.40;102404.00;;;;5018677;28;20211;-64
2023/01/30 18:11:57;;;;;;;0.30;0.30;;;9.30;99.90;12.80;102412.00;;;;5031392;28;20199;-63
2023/01/30 18:14:23;;;;;;;0.20;0.20;;;9.60;99.90;12.60;102420.00;;;;5014944;28;20183;-63
2023/01/30 18:16:58;;;;;;;0.27;0.27;;;9.40;99.90;12.40;102431.00;;;;5032347;28;20186;-63
2023/01/30 18:19:27;;;;;;;0.20;0.20;;;9.40;99.90;12.30;102439.00;;;;5032085;28;20186;-63
2023/01/30 18:21:53;;;;;;;0.20;0.20;;;9.30;99.90;12.60;102427.00;;;;5033364;28;20198;-63
2023/01/30 18:24:27;;;;;;;1.63;1.63;;;9.30;99.90;11.50;102436.00;;;;5032418;28;20179;-63
2023/01/30 18:26:53;;;;;;;3.20;1.30;;;9.10;99.90;10.90;102448.00;;;;5020489;28;20504;-65
2023/01/30 18:29:22;;;;;;;2.37;1.63;;;8.70;99.90;11.20;102425.00;;;;5060964;28;20274;-65
2023/01/30 18:31:56;;;;;;;0.40;0.40;;;8.60;99.90;10.50;102427.00;;;;5032628;28;20717;-65
2023/01/30 18:34:22;;;;;;;2.00;0.87;;;8.50;99.90;11.00;102410.00;;;;5058429;28;20723;-65
2023/01/30 18:36:48;;;;;;;0.20;0.20;;;8.40;99.90;11.40;102397.00;;;;5031957;28;20211;-65
2023/01/30 18:39:17;;;;;;;0.20;0.20;;;8.60;99.90;10.90;102375.00;;;;5031350;28;20213;-66
2023/01/30 18:41:50;;;;;;;2.50;1.83;;;8.40;99.90;11.10;102401.00;;;;5015030;28;20213;-66
2023/01/30 18:44:28;;;;;;;2.20;2.10;;;8.40;99.90;11.00;102423.00;;;;5027098;28;20206;-65
2023/01/30 18:46:54;;;;;;;3.03;1.50;;;8.50;99.90;10.50;102419.00;;;;5031800;28;20175;-65
2023/01/30 18:49:23;;;;;;;1.03;0.73;;;8.30;99.90;9.90;102406.00;;;;5032007;28;20542;-65
2023/01/30 18:51:50;;;;;;;5.17;2.67;;;8.10;99.90;10.10;102402.00;;;;5031392;28;20715;-65
2023/01/30 18:54:16;;;;;;;0.20;0.20;;;8.00;99.90;10.00;102415.00;;;;5033962;28;20724;-65
2023/01/30 18:57:18;;;;;;;1.07;1.07;;;8.00;99.90;10.60;102433.00;;;;5017622;28;20193;-66
2023/01/30 19:00:02;;;;;;;6.33;0.57;;;8.30;99.90;10.10;102425.00;;;;5035510;28;20188;-65
2023/01/30 19:02:31;;;;;;;0.20;0.20;;;8.10;99.90;10.00;102434.00;;;;5015896;28;20195;-65
2023/01/30 19:04:57;;;;;;;0.20;0.20;;;8.00;99.90;10.20;102391.00;;;;5033615;28;20641;-65
2023/01/30 19:07:23;;;;;;;3.90;2.10;;;8.00;99.90;10.10;102439.00;;;;5017767;28;20237;-65
2023/01/30 19:10:15;;;;;;;2.10;2.00;;;8.00;99.90;10.30;102444.00;;;;5036424;28;20182;-66
2023/01/30 19:15:35;;;;;;;1.27;1.23;;;8.10;99.90;10.00;102454.00;;;;5027731;28;20278;-65
2023/01/30 19:18:03;;;;;;;0.20;0.20;;;7.90;99.90;9.80;102461.00;;;;5046780;28;20194;-65
2023/01/30 19:20:29;;;;;;;0.20;0.20;;;7.90;99.90;9.90;102465.00;;;;5052563;28;20192;-66
2023/01/30 19:22:58;;;;;;;0.20;0.20;;;7.80;99.90;10.40;102454.00;;;;5036781;28;20530;-65
2023/01/30 19:25:24;;;;;;;0.20;0.20;;;8.00;99.90;10.20;102471.00;;;;5031918;28;20221;-65
2023/01/30 19:28:34;;;;;;;0.20;0.20;;;8.00;99.90;10.40;102475.00;;;;5035959;28;20189;-65
2023/01/30 19:31:08;;;;;;;1.60;0.70;;;8.00;99.90;9.80;102456.00;;;;5036252;28;20198;-66
2023/01/30 19:33:37;;;;;;;0.97;0.97;;;7.80;99.90;9.50;102457.00;;;;5034312;28;20199;-66